Time;durP1;ratioP1;P1;durP2;ratioP2;P2;SDS_P1;SDS_P2;PMS_P1;PMS_P2;Temp;Humidity;BMP_temperature;BMP_pressure;BME280_temperature;BME280_humidity;BME280_pressure;Samples;Min_cycle;Max_cycle;Signal;HPM_P1;HPM_P2
2023/07/03 00:00:37;;;;;;;7.43;3.03;;;;;;;17.72;91.76;98329.88;4484051;31;20143;-65
2023/07/03 00:03:05;;;;;;;6.00;2.97;;;;;;;17.71;91.92;98330.88;4484244;32;20152;-65
2023/07/03 00:05:32;;;;;;;6.57;2.90;;;;;;;17.74;91.84;98333.13;4484219;32;20123;-65
2023/07/03 00:07:59;;;;;;;5.45;2.95;;;;;;;17.75;92.06;98326.81;4483939;32;20155;-65
2023/07/03 00:10:26;;;;;;;5.47;2.95;;;;;;;17.64;92.62;98322.03;4484048;31;20128;-65
2023/07/03 00:12:53;;;;;;;5.85;3.25;;;;;;;17.68;92.73;98333.91;4483936;31;20093;-65
2023/07/03 00:15:21;;;;;;;6.25;3.03;;;;;;;17.62;93.00;98334.69;4484101;32;20102;-65
2023/07/03 00:17:48;;;;;;;6.18;3.45;;;;;;;17.64;93.19;98327.34;4483923;31;20211;-65
2023/07/03 00:20:15;;;;;;;8.00;3.00;;;;;;;17.66;93.27;98331.44;4483850;31;20085;-65
2023/07/03 00:22:44;;;;;;;6.30;3.50;;;;;;;17.65;93.45;98323.69;4484029;32;20364;-65
2023/07/03 00:25:12;;;;;;;6.32;3.17;;;;;;;17.64;93.58;98320.25;4483987;31;20111;-65
2023/07/03 00:27:39;;;;;;;8.15;3.25;;;;;;;17.65;93.53;98336.94;4483899;31;20089;-65
2023/07/03 00:30:07;;;;;;;6.05;3.22;;;;;;;17.57;94.14;98340.56;4484053;32;20573;-65
2023/07/03 00:32:44;;;;;;;8.45;3.58;;;;;;;17.52;94.51;98342.97;4486133;31;20096;-65
2023/07/03 00:35:11;;;;;;;7.87;3.28;;;;;;;17.48;94.78;98347.00;4485918;31;20103;-65
2023/07/03 00:37:39;;;;;;;5.87;3.22;;;;;;;17.43;95.09;98349.44;4485972;31;20127;-65
2023/07/03 00:40:06;;;;;;;7.25;3.12;;;;;;;17.35;95.60;98351.19;4485913;32;20081;-65
2023/07/03 00:42:34;;;;;;;6.03;2.70;;;;;;;17.20;96.66;98338.03;4486056;31;20093;-65
2023/07/03 00:45:05;;;;;;;5.95;3.12;;;;;;;17.16;97.17;98339.41;4485912;32;20108;-65
2023/07/03 00:47:32;;;;;;;4.90;3.03;;;;;;;17.17;96.95;98333.13;4486072;31;20110;-65
2023/07/03 00:49:59;;;;;;;6.30;3.17;;;;;;;17.20;96.82;98342.50;4485785;31;20088;-65
2023/07/03 00:52:27;;;;;;;5.25;3.20;;;;;;;17.23;96.49;98347.44;4486227;31;20088;-65
2023/07/03 00:54:54;;;;;;;5.60;3.10;;;;;;;17.26;96.47;98359.44;4485923;31;20087;-65
2023/07/03 00:57:23;;;;;;;5.10;3.12;;;;;;;17.25;96.64;98357.81;4486075;32;20096;-65
2023/07/03 00:59:50;;;;;;;5.90;2.80;;;;;;;17.25;96.89;98352.53;4485848;31;20084;-65
2023/07/03 01:02:39;;;;;;;5.50;3.05;;;;;;;17.19;97.14;98357.56;4485646;31;20097;-65
2023/07/03 01:05:14;;;;;;;6.07;3.42;;;;;;;17.13;97.72;98347.72;4484352;32;20179;-65
2023/07/03 01:07:42;;;;;;;7.70;3.65;;;;;;;17.11;98.30;98346.28;4484662;32;20145;-65
2023/07/03 01:10:14;;;;;;;5.07;3.08;;;;;;;17.11;98.72;98344.47;4484463;32;20127;-65
2023/07/03 01:12:45;;;;;;;7.57;3.42;;;;;;;17.15;99.03;98344.91;4484495;32;20563;-65
2023/07/03 01:15:17;;;;;;;10.52;3.28;;;;;;;17.15;99.39;98356.31;4484494;32;20084;-65
2023/07/03 01:17:47;;;;;;;7.32;3.85;;;;;;;17.15;100.00;98355.47;4484539;32;20123;-65
2023/07/03 01:20:17;;;;;;;8.65;4.20;;;;;;;17.09;100.00;98356.25;4484501;32;20121;-65
2023/07/03 01:22:58;;;;;;;6.10;3.50;;;;;;;17.04;100.00;98351.53;4485682;31;20092;-65
2023/07/03 01:25:26;;;;;;;8.65;3.90;;;;;;;17.02;100.00;98346.41;4484485;32;20084;-65
2023/07/03 01:27:55;;;;;;;9.75;3.45;;;;;;;17.01;100.00;98343.97;4484443;32;20151;-65
2023/07/03 01:30:22;;;;;;;9.23;3.37;;;;;;;17.08;100.00;98344.00;4484359;32;20168;-64
2023/07/03 01:32:52;;;;;;;5.35;3.28;;;;;;;17.04;100.00;98330.34;4471460;32;20100;-65
2023/07/03 01:35:21;;;;;;;7.50;3.85;;;;;;;17.11;100.00;98333.03;4485494;31;20115;-65
2023/07/03 01:37:50;;;;;;;6.85;3.17;;;;;;;17.19;100.00;98327.62;4484442;32;20097;-65
2023/07/03 01:40:20;;;;;;;10.73;3.45;;;;;;;17.23;100.00;98333.34;4485498;31;20205;-65
2023/07/03 01:42:49;;;;;;;6.72;3.42;;;;;;;17.22;100.00;98331.72;4484448;31;20160;-65
2023/07/03 01:45:16;;;;;;;6.37;3.42;;;;;;;17.26;100.00;98335.62;4485695;31;20088;-65
2023/07/03 01:47:44;;;;;;;8.32;3.97;;;;;;;17.30;100.00;98336.88;4485442;32;20104;-65
2023/07/03 01:50:15;;;;;;;6.43;3.67;;;;;;;17.30;100.00;98331.59;4485439;32;20183;-65
2023/07/03 01:52:55;;;;;;;6.80;3.58;;;;;;;17.32;100.00;98332.19;4484280;32;20450;-65
2023/07/03 01:55:46;;;;;;;7.03;3.40;;;;;;;17.29;100.00;98332.59;4485599;31;20118;-65
2023/07/03 01:58:32;;;;;;;6.20;4.30;;;;;;;17.33;100.00;98331.19;4485710;31;20076;-65
2023/07/03 02:01:10;;;;;;;8.85;4.20;;;;;;;17.33;100.00;98333.84;4485643;31;20097;-65
2023/07/03 02:03:49;;;;;;;9.48;3.33;;;;;;;17.38;99.79;98339.37;4485766;31;20599;-65
2023/07/03 02:06:26;;;;;;;8.48;3.83;;;;;;;17.45;98.95;98331.50;4484088;32;20653;-65
2023/07/03 02:08:55;;;;;;;11.57;4.18;;;;;;;17.46;98.73;98336.59;4484297;32;20393;-65
2023/07/03 02:11:23;;;;;;;7.25;4.00;;;;;;;17.45;98.63;98329.66;4485193;32;20580;-65
2023/07/03 02:13:50;;;;;;;8.00;3.97;;;;;;;17.45;98.58;98332.31;4475878;32;20123;-65
2023/07/03 02:16:19;;;;;;;10.07;3.92;;;;;;;17.45;98.70;98331.50;4469677;32;20096;-65
2023/07/03 02:18:46;;;;;;;6.47;4.18;;;;;;;17.44;98.57;98325.41;4469776;32;20093;-65
2023/07/03 02:21:16;;;;;;;6.18;3.50;;;;;;;17.45;98.13;98336.81;4469840;32;20172;-65
2023/07/03 02:23:45;;;;;;;7.28;3.72;;;;;;;17.48;97.88;98331.94;4469853;32;20477;-65
2023/07/03 02:26:14;;;;;;;8.85;4.05;;;;;;;17.41;98.35;98344.31;4469524;32;20115;-65
2023/07/03 02:28:42;;;;;;;6.85;3.70;;;;;;;17.43;98.37;98344.12;4469450;32;20096;-65
2023/07/03 02:31:11;;;;;;;8.23;4.00;;;;;;;17.43;98.60;98347.59;4469715;32;20446;-65
2023/07/03 02:33:39;;;;;;;7.18;3.90;;;;;;;17.37;99.37;98349.16;4469578;32;20119;-65
2023/07/03 02:36:07;;;;;;;7.25;3.50;;;;;;;17.34;99.81;98344.25;4469383;32;20131;-65
2023/07/03 02:38:34;;;;;;;6.78;4.18;;;;;;;17.34;99.85;98346.91;4469707;32;20096;-65
2023/07/03 02:41:03;;;;;;;6.55;3.75;;;;;;;17.33;100.00;98344.44;4469295;32;20153;-65
2023/07/03 02:43:31;;;;;;;6.10;4.00;;;;;;;17.38;100.00;98342.03;4469455;32;20084;-65
2023/07/03 02:46:03;;;;;;;6.60;3.75;;;;;;;17.35;100.00;98340.59;4469656;32;20545;-65
2023/07/03 02:48:31;;;;;;;7.55;4.32;;;;;;;17.38;99.98;98347.31;4469230;32;20100;-65
2023/07/03 02:50:59;;;;;;;8.02;3.60;;;;;;;17.40;99.75;98353.28;4469447;32;20119;-65
2023/07/03 02:53:27;;;;;;;9.93;4.55;;;;;;;17.38;99.82;98352.63;4468745;32;20088;-65
2023/07/03 02:55:55;;;;;;;8.02;4.30;;;;;;;17.38;99.68;98358.75;4469749;32;20092;-65
2023/07/03 02:58:24;;;;;;;5.85;3.95;;;;;;;17.43;99.84;98358.19;4469422;32;20096;-65
2023/07/03 03:00:53;;;;;;;8.25;4.07;;;;;;;17.42;99.76;98361.81;4469464;32;20556;-65
2023/07/03 03:03:24;;;;;;;6.93;4.28;;;;;;;17.46;99.27;98359.63;4469226;32;20193;-65
2023/07/03 03:05:52;;;;;;;8.88;4.12;;;;;;;17.47;99.36;98364.75;4469289;32;20092;-65
2023/07/03 03:08:21;;;;;;;8.35;4.00;;;;;;;17.48;99.45;98362.91;4469531;32;20802;-65
2023/07/03 03:10:53;;;;;;;7.37;4.25;;;;;;;17.39;99.70;98362.22;4479879;32;20105;-65
2023/07/03 03:13:21;;;;;;;9.18;3.72;;;;;;;17.42;99.51;98361.81;4485083;31;20097;-65
2023/07/03 03:15:48;;;;;;;8.00;3.70;;;;;;;17.45;99.24;98360.63;4485139;32;20904;-65
2023/07/03 03:18:17;;;;;;;8.00;4.12;;;;;;;17.49;98.64;98362.72;4484815;32;20085;-65
2023/07/03 03:20:44;;;;;;;10.98;4.03;;;;;;;17.51;98.04;98360.69;4485114;32;20092;-65
2023/07/03 03:23:13;;;;;;;9.32;3.53;;;;;;;17.60;97.62;98357.91;4485045;32;20100;-65
2023/07/03 03:25:42;;;;;;;7.00;4.22;;;;;;;17.82;96.72;98361.31;4484895;31;20092;-64
2023/07/03 03:28:09;;;;;;;9.13;4.20;;;;;;;17.88;96.06;98365.81;4484695;31;20104;-65
2023/07/03 03:30:38;;;;;;;7.37;3.80;;;;;;;18.01;95.21;98357.19;4484708;31;20105;-65
2023/07/03 03:33:05;;;;;;;7.00;3.40;;;;;;;18.09;94.53;98362.31;4484542;31;20201;-65
2023/07/03 03:35:32;;;;;;;6.50;4.15;;;;;;;18.20;93.44;98364.44;4484892;31;20544;-64
2023/07/03 03:38:00;;;;;;;6.32;3.58;;;;;;;18.21;92.42;98358.12;4484692;31;20548;-65
2023/07/03 03:40:27;;;;;;;7.35;3.67;;;;;;;18.23;91.54;98369.34;4484858;32;20557;-65
2023/07/03 03:42:54;;;;;;;10.90;4.12;;;;;;;18.38;89.43;98371.84;4484535;31;20084;-65
2023/07/03 03:45:22;;;;;;;9.85;3.50;;;;;;;18.50;88.51;98377.41;4484497;32;20100;-66
2023/07/03 03:47:51;;;;;;;7.80;4.07;;;;;;;18.56;87.84;98368.66;4484425;31;20764;-66
2023/07/03 03:50:19;;;;;;;6.22;3.83;;;;;;;18.76;86.45;98378.53;4484549;31;20088;-66
2023/07/03 03:52:46;;;;;;;11.93;3.85;;;;;;;18.83;85.66;98383.84;4484572;31;20084;-66
2023/07/03 03:55:14;;;;;;;5.18;3.35;;;;;;;18.84;86.00;98386.31;4484500;31;20119;-66
2023/07/03 03:57:42;;;;;;;7.65;3.97;;;;;;;18.80;87.13;98393.03;4484430;31;20469;-66
2023/07/03 04:00:16;;;;;;;8.00;4.30;;;;;;;18.74;85.78;98386.69;4483862;31;20131;-66
2023/07/03 04:02:44;;;;;;;6.35;3.47;;;;;;;18.72;85.46;98393.22;4497593;31;20457;-66
2023/07/03 04:05:11;;;;;;;5.50;3.37;;;;;;;18.93;84.33;98385.13;4496609;31;20104;-66
2023/07/03 04:07:39;;;;;;;7.30;3.78;;;;;;;19.03;84.02;98389.22;4502056;31;20798;-66
2023/07/03 04:10:08;;;;;;;6.80;3.22;;;;;;;19.09;82.49;98396.38;4495831;31;20100;-66
2023/07/03 04:12:35;;;;;;;9.48;3.90;;;;;;;19.19;81.64;98399.47;4486078;31;20488;-66
2023/07/03 04:15:03;;;;;;;6.45;3.80;;;;;;;19.36;79.92;98407.06;4486995;31;20096;-66
2023/07/03 04:17:46;;;;;;;8.10;3.70;;;;;;;19.35;80.19;98403.59;4494624;31;20096;-66
2023/07/03 04:20:13;;;;;;;8.45;4.15;;;;;;;19.39;80.29;98409.31;4486517;32;20149;-67
2023/07/03 04:22:42;;;;;;;10.90;4.10;;;;;;;19.49;79.63;98415.06;4488999;31;20096;-66
2023/07/03 04:25:09;;;;;;;9.40;3.85;;;;;;;19.52;79.61;98404.00;4486433;31;20097;-66
2023/07/03 04:27:37;;;;;;;8.95;4.62;;;;;;;19.57;79.68;98406.06;4494065;31;20135;-66
2023/07/03 04:30:06;;;;;;;7.22;3.90;;;;;;;19.53;80.09;98410.97;4476967;32;20100;-67
2023/07/03 04:32:34;;;;;;;5.93;3.58;;;;;;;19.57;79.46;98406.88;4486109;31;20096;-67
2023/07/03 04:35:06;;;;;;;7.18;3.40;;;;;;;19.75;78.53;98408.09;4486127;31;20105;-67
2023/07/03 04:37:34;;;;;;;7.40;3.55;;;;;;;19.79;78.03;98404.06;4492611;31;20103;-67
2023/07/03 04:40:02;;;;;;;7.37;4.15;;;;;;;19.75;77.48;98403.59;4489707;31;20100;-65
2023/07/03 04:42:31;;;;;;;8.88;4.12;;;;;;;19.91;77.52;98412.19;4470167;32;20124;-67
2023/07/03 04:45:01;;;;;;;8.63;4.05;;;;;;;20.11;76.51;98412.19;4470312;32;20088;-66
2023/07/03 04:47:40;;;;;;;6.87;3.30;;;;;;;20.11;76.03;98412.19;4486481;31;20141;-66
2023/07/03 04:50:12;;;;;;;7.53;4.03;;;;;;;20.32;75.65;98417.25;4492742;31;20092;-67
2023/07/03 04:52:45;;;;;;;9.13;3.62;;;;;;;20.51;73.89;98422.72;4492084;31;20536;-67
2023/07/03 04:55:12;;;;;;;6.70;3.40;;;;;;;20.58;72.71;98420.84;4492319;31;20080;-67
2023/07/03 04:57:42;;;;;;;5.80;3.40;;;;;;;20.59;72.46;98425.16;4499230;31;20104;-67
2023/07/03 05:00:14;;;;;;;7.00;2.97;;;;;;;20.60;72.05;98416.13;4491980;31;20155;-67
2023/07/03 05:02:44;;;;;;;10.48;4.10;;;;;;;20.82;70.92;98418.53;4491077;31;20108;-66
2023/07/03 05:05:13;;;;;;;5.50;3.30;;;;;;;20.98;71.02;98428.69;4485412;31;20088;-67
2023/07/03 05:07:41;;;;;;;6.35;3.60;;;;;;;21.22;68.89;98432.44;4492000;31;20445;-67
2023/07/03 05:10:11;;;;;;;6.25;3.33;;;;;;;21.26;67.39;98430.97;4485758;31;20152;-67
2023/07/03 05:12:46;;;;;;;8.73;3.92;;;;;;;21.51;66.54;98434.75;4485778;31;20112;-67
2023/07/03 05:15:15;;;;;;;5.75;3.47;;;;;;;21.55;66.97;98444.75;4485892;31;20119;-67
2023/07/03 05:17:42;;;;;;;7.47;3.87;;;;;;;21.67;66.49;98442.22;4496773;31;20109;-67
2023/07/03 05:20:13;;;;;;;6.12;3.53;;;;;;;21.91;65.23;98445.91;4501576;31;20091;-67
2023/07/03 05:22:42;;;;;;;8.27;2.97;;;;;;;22.04;63.64;98455.63;4501362;31;20428;-67
2023/07/03 05:25:14;;;;;;;6.43;3.50;;;;;;;22.20;63.60;98450.78;4475739;31;20145;-67
2023/07/03 05:27:42;;;;;;;6.60;2.97;;;;;;;22.30;63.23;98459.94;4498195;31;20095;-67
2023/07/03 05:30:10;;;;;;;7.65;3.42;;;;;;;22.48;61.75;98452.97;4501383;31;20096;-67
2023/07/03 05:32:38;;;;;;;10.85;3.40;;;;;;;22.79;61.64;98464.56;4501000;31;20126;-67
2023/07/03 05:35:07;;;;;;;6.90;3.50;;;;;;;22.92;62.09;98467.06;4485155;31;20123;-67
2023/07/03 05:37:36;;;;;;;7.55;3.22;;;;;;;22.99;60.59;98469.66;4486471;31;20091;-67
2023/07/03 05:40:06;;;;;;;4.53;2.80;;;;;;;22.94;59.75;98474.88;4486134;31;20100;-67
2023/07/03 05:42:36;;;;;;;7.22;3.58;;;;;;;22.82;59.54;98472.94;4485756;31;20443;-67
2023/07/03 05:45:04;;;;;;;5.85;3.30;;;;;;;22.96;59.54;98480.78;4485262;31;20664;-67
2023/07/03 05:47:31;;;;;;;6.62;3.03;;;;;;;23.11;58.93;98478.56;4486739;31;20092;-67
2023/07/03 05:49:59;;;;;;;5.65;3.03;;;;;;;23.24;57.90;98477.59;4498456;31;20108;-67
2023/07/03 05:52:27;;;;;;;6.65;2.87;;;;;;;23.45;57.90;98484.28;4469618;32;20152;-67
2023/07/03 05:54:54;;;;;;;4.00;2.95;;;;;;;23.62;55.10;98484.44;4469670;32;20141;-67
2023/07/03 05:57:22;;;;;;;5.30;3.03;;;;;;;23.50;54.65;98492.41;4469407;32;20558;-67
2023/07/03 05:59:50;;;;;;;5.30;3.25;;;;;;;23.68;55.62;98486.19;4469742;32;20080;-67
2023/07/03 06:02:19;;;;;;;7.18;3.22;;;;;;;23.62;54.44;98488.94;4493563;31;20141;-67
2023/07/03 06:04:46;;;;;;;8.38;3.15;;;;;;;23.85;55.06;98483.69;4489089;31;20104;-67
2023/07/03 06:07:14;;;;;;;5.15;3.37;;;;;;;24.04;53.12;98494.28;4485402;31;20092;-68
2023/07/03 06:09:41;;;;;;;7.50;2.60;;;;;;;24.24;52.13;98492.09;4475039;31;20131;-67
2023/07/03 06:12:09;;;;;;;4.45;2.67;;;;;;;24.05;49.59;98482.56;4481381;31;20843;-68
2023/07/03 06:14:38;;;;;;;5.20;3.00;;;;;;;24.05;48.81;98493.25;4482440;31;20080;-68
2023/07/03 06:17:06;;;;;;;7.45;2.97;;;;;;;24.14;48.15;98486.50;4482513;31;20127;-67
2023/07/03 06:19:35;;;;;;;6.30;2.87;;;;;;;24.15;48.08;98487.31;4483919;31;20097;-67
2023/07/03 06:22:02;;;;;;;5.72;3.05;;;;;;;24.25;49.69;98484.87;4482885;31;20100;-67
2023/07/03 06:24:29;;;;;;;6.75;2.60;;;;;;;24.38;49.99;98483.84;4480700;31;20161;-67
2023/07/03 06:26:57;;;;;;;3.85;2.67;;;;;;;24.41;47.84;98486.84;4483461;31;20155;-67
2023/07/03 06:29:25;;;;;;;7.93;3.47;;;;;;;24.54;49.92;98485.81;4482824;31;20108;-67
2023/07/03 06:31:53;;;;;;;4.90;3.05;;;;;;;24.67;46.88;98482.06;4482591;31;20116;-67
2023/07/03 06:34:21;;;;;;;8.10;3.80;;;;;;;24.64;44.99;98479.06;4482470;31;20582;-67
2023/07/03 06:36:49;;;;;;;10.48;3.47;;;;;;;24.76;45.99;98482.53;4480394;32;20096;-67
2023/07/03 06:39:18;;;;;;;6.78;3.20;;;;;;;24.72;45.24;98476.00;4477876;31;20139;-67
2023/07/03 06:41:45;;;;;;;4.70;2.95;;;;;;;24.87;45.96;98483.53;4480187;31;20219;-67
2023/07/03 06:44:14;;;;;;;6.95;3.08;;;;;;;25.15;44.87;98480.06;4481444;31;20091;-67
2023/07/03 06:46:43;;;;;;;8.82;3.37;;;;;;;25.23;41.79;98487.72;4480464;31;20428;-67
2023/07/03 06:49:13;;;;;;;5.05;2.78;;;;;;;25.33;43.50;98495.19;4483198;31;20105;-67
2023/07/03 06:51:40;;;;;;;5.05;2.95;;;;;;;25.44;41.33;98498.87;4484820;31;20173;-67
2023/07/03 06:54:10;;;;;;;4.32;2.95;;;;;;;25.64;42.28;98499.22;4483349;31;20466;-67
2023/07/03 06:56:38;;;;;;;8.65;3.40;;;;;;;25.73;42.71;98496.94;4482070;31;20125;-67
2023/07/03 06:59:05;;;;;;;12.18;3.65;;;;;;;25.89;43.73;98499.87;4482376;31;20250;-67
2023/07/03 07:01:34;;;;;;;8.27;3.28;;;;;;;26.33;42.08;98503.56;4482646;31;20466;-67
2023/07/03 07:04:03;;;;;;;11.77;3.67;;;;;;;26.29;37.02;98510.47;4481778;32;20120;-67
2023/07/03 07:06:30;;;;;;;7.32;3.55;;;;;;;25.95;38.48;98504.28;4482342;31;20450;-67
2023/07/03 07:08:59;;;;;;;6.68;3.53;;;;;;;25.45;39.90;98513.88;4482231;31;20097;-67
2023/07/03 07:11:30;;;;;;;6.50;3.72;;;;;;;25.48;40.28;98506.19;4481733;31;20091;-67
2023/07/03 07:13:59;;;;;;;7.90;3.95;;;;;;;25.78;38.38;98510.44;4481909;31;20092;-67
2023/07/03 07:16:34;;;;;;;7.62;3.45;;;;;;;26.03;39.37;98504.72;4479615;32;20104;-68
2023/07/03 07:19:04;;;;;;;11.02;4.18;;;;;;;26.15;39.68;98509.19;4482446;31;20092;-68
2023/07/03 07:21:34;;;;;;;5.97;3.55;;;;;;;26.23;38.53;98506.09;4479804;32;20131;-67
2023/07/03 07:24:16;;;;;;;13.40;4.43;;;;;;;25.98;39.97;98503.78;4482015;31;20575;-67
2023/07/03 07:26:44;;;;;;;12.70;4.65;;;;;;;26.03;39.86;98507.41;4478372;32;20113;-67
2023/07/03 07:29:11;;;;;;;6.95;4.10;;;;;;;26.00;38.13;98507.87;4482035;31;20097;-67
2023/07/03 07:31:39;;;;;;;7.68;4.90;;;;;;;25.76;38.56;98506.41;4481674;31;20159;-67
2023/07/03 07:34:11;;;;;;;6.50;3.95;;;;;;;26.10;39.97;98501.06;4481683;32;20116;-67
2023/07/03 07:36:39;;;;;;;6.90;4.43;;;;;;;26.06;39.90;98502.59;4481851;31;20101;-67
2023/07/03 07:39:08;;;;;;;8.45;4.40;;;;;;;25.63;40.52;98505.66;4482464;31;20091;-67
2023/07/03 07:41:36;;;;;;;6.57;4.30;;;;;;;25.89;41.35;98503.41;4482149;32;20152;-67
2023/07/03 07:44:04;;;;;;;7.20;4.28;;;;;;;25.84;41.24;98501.44;4481494;31;20119;-68
2023/07/03 07:46:32;;;;;;;7.68;4.50;;;;;;;25.93;41.60;98507.19;4479256;31;20108;-69
2023/07/03 07:49:00;;;;;;;9.00;4.53;;;;;;;25.86;40.75;98510.06;4481866;31;20179;-68
2023/07/03 07:51:28;;;;;;;9.15;5.50;;;;;;;25.92;40.97;98510.97;4482051;31;20163;-68
2023/07/03 07:53:57;;;;;;;9.05;4.53;;;;;;;25.71;39.93;98512.50;4479020;31;20101;-68
2023/07/03 07:56:26;;;;;;;10.18;5.30;;;;;;;25.98;38.58;98519.88;4481673;31;20107;-67
2023/07/03 07:58:56;;;;;;;9.98;5.10;;;;;;;26.14;38.82;98519.09;4482843;31;20156;-68
2023/07/03 08:01:23;;;;;;;13.62;5.57;;;;;;;26.31;38.37;98516.41;4481318;31;20100;-69
2023/07/03 08:03:51;;;;;;;9.95;5.65;;;;;;;26.55;38.71;98508.16;4479341;31;20540;-68
2023/07/03 08:06:19;;;;;;;11.12;5.30;;;;;;;26.65;38.50;98508.28;4482145;31;20105;-67
2023/07/03 08:08:52;;;;;;;12.07;5.30;;;;;;;26.52;38.28;98517.50;4480594;32;20100;-66
2023/07/03 08:11:19;;;;;;;14.65;5.25;;;;;;;26.61;38.16;98517.91;4481346;32;20454;-66
2023/07/03 08:13:46;;;;;;;8.57;5.22;;;;;;;26.42;36.76;98524.63;4479801;31;20164;-66
2023/07/03 08:16:17;;;;;;;11.30;5.80;;;;;;;26.38;36.87;98516.25;4481323;31;20093;-66
2023/07/03 08:18:45;;;;;;;9.82;6.22;;;;;;;26.66;38.04;98523.41;4479512;31;20152;-66
2023/07/03 08:21:16;;;;;;;12.23;6.43;;;;;;;26.46;37.49;98512.31;4482152;31;20114;-66
2023/07/03 08:23:44;;;;;;;15.63;6.90;;;;;;;26.37;34.79;98518.12;4481777;31;20152;-66
2023/07/03 08:26:21;;;;;;;13.73;6.75;;;;;;;26.24;35.55;98513.09;4478853;31;20131;-66
2023/07/03 08:28:48;;;;;;;11.30;6.22;;;;;;;26.34;36.04;98525.84;4478833;31;20152;-66
2023/07/03 08:31:15;;;;;;;9.73;5.40;;;;;;;26.55;34.63;98521.59;4481069;31;20174;-66
2023/07/03 08:33:43;;;;;;;10.20;6.10;;;;;;;26.65;36.08;98524.41;4480457;31;20156;-66
2023/07/03 08:36:10;;;;;;;11.00;5.82;;;;;;;26.98;34.99;98524.56;4479445;32;20104;-66
2023/07/03 08:38:40;;;;;;;8.63;5.55;;;;;;;26.96;35.42;98530.19;4481449;31;20145;-66
2023/07/03 08:41:12;;;;;;;12.30;5.40;;;;;;;26.81;37.07;98524.63;4481757;31;20506;-66
2023/07/03 08:43:46;;;;;;;10.10;5.93;;;;;;;26.72;34.56;98533.16;4480676;31;20088;-66
2023/07/03 08:46:18;;;;;;;10.95;5.97;;;;;;;26.95;36.45;98525.91;4481735;31;20104;-66
2023/07/03 08:48:49;;;;;;;10.83;6.13;;;;;;;26.65;35.08;98534.34;4481174;32;20123;-66
2023/07/03 08:51:22;;;;;;;11.05;6.32;;;;;;;26.68;34.96;98525.84;4482385;31;20084;-66
2023/07/03 08:53:54;;;;;;;9.87;5.30;;;;;;;26.97;35.86;98536.41;4482992;31;20092;-66
2023/07/03 08:56:29;;;;;;;13.85;6.97;;;;;;;26.85;34.19;98526.56;4480885;32;20100;-66
2023/07/03 08:58:56;;;;;;;15.20;6.57;;;;;;;26.60;33.74;98532.38;4480194;32;20145;-66
2023/07/03 09:01:41;;;;;;;14.77;6.72;;;;;;;26.61;34.53;98523.28;4482003;31;20097;-66
2023/07/03 09:04:30;;;;;;;12.60;6.18;;;;;;;26.74;33.99;98532.91;4481120;31;20088;-66
2023/07/03 09:07:01;;;;;;;15.45;5.80;;;;;;;26.86;34.15;98528.22;4484246;31;20104;-66
2023/07/03 09:09:36;;;;;;;13.38;6.12;;;;;;;26.91;34.76;98528.28;4478191;31;20097;-66
2023/07/03 09:12:32;;;;;;;12.75;6.80;;;;;;;26.97;34.07;98526.47;4479948;31;20465;-66
2023/07/03 09:15:00;;;;;;;9.65;5.20;;;;;;;27.03;33.30;98538.91;4475332;31;20106;-66
2023/07/03 09:17:41;;;;;;;12.00;6.12;;;;;;;26.74;35.18;98533.69;4479903;31;20100;-66
2023/07/03 09:20:11;;;;;;;11.27;5.97;;;;;;;26.86;34.45;98528.22;4477886;31;20184;-66
2023/07/03 09:22:46;;;;;;;12.37;5.87;;;;;;;27.13;33.21;98534.72;4482795;31;20163;-66
2023/07/03 09:25:29;;;;;;;12.77;5.90;;;;;;;27.12;32.68;98533.91;4481015;31;20080;-66
2023/07/03 09:27:59;;;;;;;11.45;6.18;;;;;;;27.14;34.99;98531.75;4478877;31;20130;-66
2023/07/03 09:30:27;;;;;;;11.02;5.80;;;;;;;27.15;33.76;98533.41;4480257;31;20577;-66
2023/07/03 09:32:55;;;;;;;15.95;5.78;;;;;;;27.22;33.21;98541.25;4481819;31;20134;-66
2023/07/03 09:35:33;;;;;;;12.68;6.40;;;;;;;27.38;33.54;98539.59;4483162;31;20159;-66
2023/07/03 09:38:04;;;;;;;14.00;6.05;;;;;;;27.58;33.78;98542.47;4482306;31;20100;-67
2023/07/03 09:40:40;;;;;;;12.43;6.00;;;;;;;27.53;34.08;98544.34;4485180;31;20219;-66
2023/07/03 09:43:18;;;;;;;14.45;5.65;;;;;;;27.64;34.42;98537.16;4488217;31;20113;-66
2023/07/03 09:45:47;;;;;;;11.10;6.45;;;;;;;27.93;33.33;98537.69;4485723;31;20080;-66
2023/07/03 09:48:23;;;;;;;10.10;6.00;;;;;;;27.67;32.24;98545.53;4495525;31;20109;-66
2023/07/03 09:50:52;;;;;;;11.25;6.65;;;;;;;27.77;33.08;98542.94;4490083;31;20104;-66
2023/07/03 09:53:38;;;;;;;9.98;5.87;;;;;;;28.14;33.15;98542.19;4469976;31;20093;-66
2023/07/03 09:56:15;;;;;;;9.30;5.47;;;;;;;28.35;31.95;98534.28;4483756;32;20426;-66
2023/07/03 09:58:45;;;;;;;9.40;5.20;;;;;;;28.51;32.32;98540.59;4490448;31;20080;-66
2023/07/03 10:01:23;;;;;;;10.98;5.90;;;;;;;28.47;32.91;98534.88;4500759;31;20576;-66
2023/07/03 10:04:02;;;;;;;10.98;5.80;;;;;;;28.39;32.85;98535.38;4474021;31;20466;-66
2023/07/03 10:07:00;;;;;;;12.27;6.12;;;;;;;28.24;33.46;98543.38;4485165;31;20390;-66
2023/07/03 10:09:35;;;;;;;11.30;5.60;;;;;;;28.24;32.90;98543.38;4484051;32;20119;-66
2023/07/03 10:12:16;;;;;;;11.68;5.80;;;;;;;28.58;33.15;98543.03;4491602;31;20095;-66
2023/07/03 10:14:52;;;;;;;9.43;5.50;;;;;;;28.42;32.10;98534.03;4485649;31;20493;-66
2023/07/03 10:17:27;;;;;;;9.38;5.32;;;;;;;28.41;33.93;98543.22;4469779;32;20076;-66
2023/07/03 10:19:57;;;;;;;10.70;5.93;;;;;;;28.94;33.72;98529.78;4468253;32;20101;-66
2023/07/03 10:22:25;;;;;;;12.35;5.72;;;;;;;28.99;32.89;98529.78;4469500;32;20107;-66
2023/07/03 10:25:01;;;;;;;11.20;5.97;;;;;;;28.95;31.43;98528.69;4497170;31;20509;-66
2023/07/03 10:27:30;;;;;;;13.70;5.95;;;;;;;29.06;32.17;98522.25;4499616;31;20166;-66
2023/07/03 10:30:00;;;;;;;10.60;6.43;;;;;;;29.61;31.80;98519.97;4501109;31;20123;-66
2023/07/03 10:32:32;;;;;;;10.02;5.90;;;;;;;30.14;32.64;98519.75;4500606;31;20100;-66
2023/07/03 10:35:07;;;;;;;11.40;6.10;;;;;;;30.22;31.17;98530.03;4485607;31;20152;-67
2023/07/03 10:37:43;;;;;;;12.68;6.03;;;;;;;30.00;30.80;98534.91;4490017;31;20079;-67
2023/07/03 10:40:17;;;;;;;12.48;6.18;;;;;;;29.58;31.68;98525.13;4498150;31;20182;-67
2023/07/03 10:42:49;;;;;;;12.30;6.07;;;;;;;29.33;31.52;98532.91;4484269;31;20185;-66
2023/07/03 10:45:17;;;;;;;11.97;6.57;;;;;;;29.47;31.44;98527.78;4468698;31;20176;-66
2023/07/03 10:47:57;;;;;;;9.20;6.35;;;;;;;29.48;31.43;98526.72;4476674;31;20160;-67
2023/07/03 10:50:30;;;;;;;10.95;6.22;;;;;;;29.47;30.82;98533.19;4481214;32;20121;-67
2023/07/03 10:53:20;;;;;;;15.40;8.10;;;;;;;29.67;31.11;98540.50;4481218;31;20123;-66
2023/07/03 10:55:50;;;;;;;11.90;6.80;;;;;;;29.65;30.15;98533.78;4489100;31;20422;-67
2023/07/03 10:58:33;;;;;;;12.52;7.55;;;;;;;29.46;31.40;98541.56;4476793;31;20088;-68
2023/07/03 11:01:13;;;;;;;13.57;8.30;;;;;;;29.31;31.79;98545.03;4482688;31;20111;-67
2023/07/03 11:03:56;;;;;;;14.60;7.70;;;;;;;28.89;32.27;98548.59;4481532;31;20135;-67
2023/07/03 11:06:50;;;;;;;12.23;7.30;;;;;;;29.12;33.33;98545.47;4486841;31;20120;-67
2023/07/03 11:10:02;;;;;;;13.85;7.50;;;;;;;29.27;32.67;98547.44;4465688;32;20140;-67
2023/07/03 11:12:42;;;;;;;12.60;7.30;;;;;;;29.24;31.74;98544.44;4477706;31;20137;-67
2023/07/03 11:15:19;;;;;;;15.00;8.20;;;;;;;29.16;31.73;98543.06;4487993;31;20150;-67
2023/07/03 11:17:58;;;;;;;12.85;6.97;;;;;;;29.20;31.59;98542.28;4491516;31;20598;-67
2023/07/03 11:20:53;;;;;;;12.27;6.93;;;;;;;29.28;32.82;98540.16;4488888;31;20084;-67
2023/07/03 11:23:25;;;;;;;12.60;7.68;;;;;;;29.05;32.80;98534.12;4494733;31;20093;-67
2023/07/03 11:26:03;;;;;;;12.13;7.50;;;;;;;29.07;32.85;98542.78;4485786;31;20165;-67
2023/07/03 11:28:36;;;;;;;12.25;6.75;;;;;;;29.39;32.46;98541.81;4497283;31;20095;-67
2023/07/03 11:31:04;;;;;;;13.00;6.68;;;;;;;29.98;31.17;98535.16;4478704;31;20088;-68
2023/07/03 11:33:33;;;;;;;10.63;6.85;;;;;;;29.91;32.26;98537.31;4482435;31;20126;-67
2023/07/03 11:36:05;;;;;;;13.62;7.62;;;;;;;29.64;31.54;98532.94;4496358;31;20099;-67
2023/07/03 11:38:35;;;;;;;12.32;6.93;;;;;;;29.38;32.48;98529.41;4497004;31;20096;-67
2023/07/03 11:41:09;;;;;;;13.00;8.10;;;;;;;29.31;32.53;98531.53;4500629;31;20171;-67
2023/07/03 11:44:18;;;;;;;13.27;7.27;;;;;;;29.52;33.46;98524.28;4500537;31;20152;-68
2023/07/03 11:46:51;;;;;;;10.98;7.35;;;;;;;29.68;32.37;98533.22;4486912;31;20748;-64